createdAt,value
2018-03-02T00:01:59.493Z,37.00
2018-03-02T00:04:29.155Z,36.90
2018-03-02T00:06:57.450Z,37.10
2018-03-02T00:09:25.686Z,36.70
2018-03-02T00:11:53.846Z,37.00
2018-03-02T00:14:22.013Z,37.20
2018-03-02T00:16:50.158Z,37.20
2018-03-02T00:19:18.309Z,37.20
2018-03-02T00:21:46.452Z,37.10
2018-03-02T00:24:14.633Z,37.40
2018-03-02T00:26:42.785Z,37.30
2018-03-02T00:29:10.927Z,37.30
2018-03-02T00:31:39.864Z,37.70
2018-03-02T00:34:08.011Z,37.60
2018-03-02T00:36:36.206Z,37.70
2018-03-02T00:39:04.370Z,38.00
2018-03-02T00:41:32.517Z,37.80
2018-03-02T00:44:01.439Z,38.30
2018-03-02T00:46:29.714Z,38.10
2018-03-02T00:48:57.854Z,38.20
2018-03-02T00:51:26.771Z,38.60
2018-03-02T00:53:54.950Z,38.60
2018-03-02T00:56:23.105Z,38.80
2018-03-02T00:58:51.312Z,38.70
2018-03-02T01:01:19.480Z,38.90
2018-03-02T01:03:47.640Z,38.70
2018-03-02T01:06:15.781Z,38.80
2018-03-02T01:08:44.722Z,39.00
2018-03-02T01:11:12.861Z,38.80
2018-03-02T01:13:41.011Z,38.90
2018-03-02T01:16:09.946Z,39.00
2018-03-02T01:18:38.090Z,39.10
2018-03-02T01:21:06.287Z,39.20
2018-03-02T01:23:34.873Z,39.20
2018-03-02T01:26:03.014Z,39.10
2018-03-02T01:28:31.394Z,39.50
2018-03-02T01:30:59.534Z,39.60
2018-03-02T01:33:27.674Z,39.50
2018-03-02T01:35:55.851Z,39.50
2018-03-02T01:38:24.006Z,39.50
2018-03-02T01:40:52.158Z,39.70
2018-03-02T01:43:20.325Z,39.90
2018-03-02T01:45:48.480Z,40.00
2018-03-02T01:48:16.698Z,39.70
2018-03-02T01:50:44.873Z,39.90
2018-03-02T01:53:13.015Z,40.00
2018-03-02T01:55:41.928Z,40.00
2018-03-02T01:58:10.110Z,40.10
2018-03-02T02:00:38.253Z,40.30
2018-03-02T02:03:06.409Z,40.00
2018-03-02T02:05:35.442Z,40.60
2018-03-02T02:08:03.674Z,40.40
2018-03-02T02:10:31.822Z,40.80
2018-03-02T02:12:59.986Z,40.60
2018-03-02T02:15:28.131Z,40.80
2018-03-02T02:17:56.270Z,40.70
2018-03-02T02:20:25.230Z,40.80
2018-03-02T02:22:53.368Z,40.70
2018-03-02T02:25:21.542Z,40.70
2018-03-02T02:27:49.722Z,40.70
2018-03-02T02:30:17.903Z,41.00
2018-03-02T02:32:46.048Z,41.10
2018-03-02T02:35:14.183Z,41.20
2018-03-02T02:37:43.120Z,41.80
2018-03-02T02:40:11.304Z,41.50
2018-03-02T02:42:39.450Z,41.60
2018-03-02T02:45:07.614Z,41.90
2018-03-02T02:47:36.121Z,42.20
2018-03-02T02:50:04.265Z,42.20
2018-03-02T02:52:33.181Z,42.20
2018-03-02T02:55:02.094Z,42.10
2018-03-02T02:57:30.239Z,42.20
2018-03-02T02:59:58.425Z,42.50
2018-03-02T03:02:26.605Z,42.70
2018-03-02T03:04:54.766Z,42.80
2018-03-02T03:07:22.913Z,42.60
2018-03-02T03:09:51.935Z,42.70
2018-03-02T03:12:20.085Z,42.70
2018-03-02T03:14:48.249Z,43.00
2018-03-02T03:17:17.162Z,43.00
2018-03-02T03:19:45.357Z,43.20
2018-03-02T03:22:13.529Z,43.00
2018-03-02T03:24:41.679Z,43.00
2018-03-02T03:27:09.825Z,42.80
2018-03-02T03:29:38.754Z,43.10
2018-03-02T03:32:06.890Z,43.10
2018-03-02T03:34:35.818Z,42.90
2018-03-02T03:37:03.993Z,43.10
2018-03-02T03:39:32.160Z,43.10
2018-03-02T03:42:00.336Z,42.70
2018-03-02T03:44:28.477Z,43.10
2018-03-02T03:46:56.650Z,43.00
2018-03-02T03:49:24.793Z,43.10
2018-03-02T03:51:52.934Z,43.10
2018-03-02T03:54:21.194Z,43.10
2018-03-02T03:56:49.337Z,43.00
2018-03-02T03:59:18.269Z,43.70
2018-03-02T04:01:46.406Z,43.10
2018-03-02T04:04:14.546Z,43.40
2018-03-02T04:06:42.702Z,43.40
2018-03-02T04:09:10.846Z,43.30
2018-03-02T04:11:39.009Z,43.30
2018-03-02T04:14:07.174Z,43.00
2018-03-02T04:16:35.318Z,43.50
2018-03-02T04:19:04.235Z,43.50
2018-03-02T04:21:32.409Z,43.40
2018-03-02T04:24:00.554Z,43.50
2018-03-02T04:26:29.488Z,43.60
2018-03-02T04:28:57.660Z,43.20
2018-03-02T04:31:25.806Z,43.60
2018-03-02T04:33:54.013Z,43.60
2018-03-02T04:36:22.176Z,43.90
2018-03-02T04:38:50.357Z,43.50
2018-03-02T04:41:18.497Z,44.20
2018-03-02T04:43:47.454Z,44.50
2018-03-02T04:46:15.589Z,44.20
2018-03-02T04:48:43.732Z,44.60
2018-03-02T04:51:12.696Z,44.40
2018-03-02T04:53:40.850Z,44.50
2018-03-02T04:56:09.102Z,43.90
2018-03-02T04:58:37.284Z,44.00
2018-03-02T05:01:05.440Z,44.60
2018-03-02T05:03:33.582Z,44.30
2018-03-02T05:06:02.546Z,44.70
2018-03-02T05:08:30.693Z,44.30
2018-03-02T05:10:58.825Z,44.40
2018-03-02T05:13:26.981Z,44.30
2018-03-02T05:15:55.910Z,44.90
2018-03-02T05:18:24.094Z,44.80
2018-03-02T05:20:52.242Z,44.20
2018-03-02T05:23:20.390Z,44.90
2018-03-02T05:25:48.710Z,44.10
2018-03-02T05:28:16.853Z,44.30
2018-03-02T05:30:45.838Z,44.30
2018-03-02T05:33:14.750Z,44.10
2018-03-02T05:35:42.891Z,44.30
2018-03-02T05:38:11.851Z,45.30
2018-03-02T05:40:40.032Z,44.20
2018-03-02T05:43:08.291Z,44.20
2018-03-02T05:45:36.449Z,44.10
2018-03-02T05:48:04.590Z,44.20
2018-03-02T05:50:32.752Z,44.40
2018-03-02T05:53:01.666Z,44.70
2018-03-02T05:55:29.831Z,44.60
2018-03-02T05:57:58.035Z,44.60
2018-03-02T06:00:26.178Z,44.80
2018-03-02T06:02:54.342Z,44.90
2018-03-02T06:05:23.261Z,44.60
2018-03-02T06:07:51.402Z,44.70
2018-03-02T06:10:20.337Z,44.50
2018-03-02T06:12:48.480Z,44.50
2018-03-02T06:15:16.822Z,44.50
2018-03-02T06:17:45.077Z,44.90
2018-03-02T06:20:13.213Z,44.80
2018-03-02T06:22:41.402Z,44.70
2018-03-02T06:25:09.541Z,44.70
2018-03-02T06:27:37.686Z,44.50
2018-03-02T06:30:05.825Z,44.40
2018-03-02T06:32:34.006Z,43.90
2018-03-02T06:35:02.165Z,43.90
2018-03-02T06:37:30.313Z,43.90
2018-03-02T06:39:58.506Z,43.60
2018-03-02T06:42:26.650Z,43.10
2018-03-02T06:44:54.797Z,43.50
2018-03-02T06:47:22.966Z,43.20
2018-03-02T06:49:51.109Z,42.90
2018-03-02T06:52:19.255Z,42.90
2018-03-02T06:54:47.441Z,42.50
2018-03-02T06:57:15.578Z,42.20
2018-03-02T06:59:44.498Z,41.50
2018-03-02T07:02:12.640Z,41.50
2018-03-02T07:04:41.671Z,40.70
2018-03-02T07:07:09.831Z,40.80
2018-03-02T07:09:38.001Z,40.60
2018-03-02T07:12:06.137Z,40.70
2018-03-02T07:14:35.053Z,40.30
2018-03-02T07:17:03.246Z,40.20
2018-03-02T07:19:31.421Z,40.00
2018-03-02T07:21:59.570Z,40.00
2018-03-02T07:24:27.746Z,39.80
2018-03-02T07:26:55.892Z,39.30
2018-03-02T07:29:24.856Z,38.80
2018-03-02T07:31:52.987Z,38.90
2018-03-02T07:34:21.129Z,39.10
2018-03-02T07:36:50.062Z,38.60
2018-03-02T07:39:18.214Z,38.60
2018-03-02T07:41:46.377Z,38.60
2018-03-02T07:44:15.300Z,38.80
2018-03-02T07:46:43.466Z,38.90
2018-03-02T07:49:11.623Z,39.40
2018-03-02T07:51:39.797Z,38.20
2018-03-02T07:54:07.945Z,36.80
2018-03-02T07:56:36.865Z,36.20
2018-03-02T07:59:05.050Z,36.10
2018-03-02T08:01:33.189Z,35.90
2018-03-02T08:04:02.093Z,35.10
2018-03-02T08:06:30.257Z,34.80
2018-03-02T08:08:59.175Z,34.80
2018-03-02T08:11:27.318Z,34.80
2018-03-02T08:13:56.278Z,34.50
2018-03-02T08:16:24.425Z,34.50
2018-03-02T08:18:52.569Z,34.40
2018-03-02T08:21:20.729Z,34.40
2018-03-02T08:23:49.638Z,33.70
2018-03-02T08:26:17.928Z,33.70
2018-03-02T08:28:46.094Z,33.20
2018-03-02T08:31:14.233Z,33.20
2018-03-02T08:33:43.160Z,32.40
2018-03-02T08:36:11.302Z,32.40
2018-03-02T08:38:40.212Z,32.30
2018-03-02T08:41:08.394Z,32.20
2018-03-02T08:43:36.554Z,31.80
2018-03-02T08:46:04.739Z,31.70
2018-03-02T08:48:32.890Z,31.00
2018-03-02T08:51:01.046Z,31.50
2018-03-02T08:53:30.086Z,30.80
2018-03-02T08:55:58.227Z,30.90
2018-03-02T08:58:26.370Z,30.20
2018-03-02T09:00:54.538Z,29.70
2018-03-02T09:03:22.773Z,29.70
2018-03-02T09:05:50.917Z,29.80
2018-03-02T09:08:19.864Z,31.10
2018-03-02T09:10:48.770Z,30.00
2018-03-02T09:13:16.910Z,30.30
2018-03-02T09:15:45.179Z,29.70
2018-03-02T09:18:13.321Z,28.70
2018-03-02T09:20:41.462Z,28.30
2018-03-02T09:23:09.622Z,27.80
2018-03-02T09:25:37.766Z,28.00
2018-03-02T09:28:05.929Z,27.80
2018-03-02T09:30:34.113Z,27.20
2018-03-02T09:33:02.254Z,26.20
2018-03-02T09:35:30.454Z,25.80
2018-03-02T09:37:58.618Z,25.50
2018-03-02T09:40:26.801Z,24.60
2018-03-02T09:42:55.770Z,24.20
2018-03-02T09:45:23.909Z,23.50
2018-03-02T09:47:52.104Z,23.10
2018-03-02T09:50:21.015Z,22.20
2018-03-02T09:52:49.165Z,22.20
2018-03-02T09:55:18.093Z,21.50
2018-03-02T09:57:46.252Z,21.60
2018-03-02T10:00:14.700Z,21.60
2018-03-02T10:02:43.646Z,20.60
2018-03-02T10:05:11.797Z,20.70
2018-03-02T10:07:39.955Z,20.00
2018-03-02T10:10:08.087Z,20.00
2018-03-02T10:12:36.228Z,19.90
2018-03-02T10:15:04.382Z,19.50
2018-03-02T10:17:32.698Z,19.40
2018-03-02T10:20:01.004Z,19.30
2018-03-02T10:22:30.030Z,18.50
2018-03-02T10:24:58.211Z,18.60
2018-03-02T10:27:26.445Z,18.40
2018-03-02T10:29:55.353Z,18.30
2018-03-02T10:32:23.506Z,18.40
2018-03-02T10:34:52.442Z,17.20
2018-03-02T10:37:20.584Z,17.30
2018-03-02T10:39:48.749Z,17.10
2018-03-02T10:42:18.478Z,16.70
2018-03-02T10:44:46.646Z,16.70
2018-03-02T10:47:14.785Z,16.20
2018-03-02T10:49:42.923Z,14.90
2018-03-02T10:52:11.593Z,15.10
2018-03-02T10:54:39.737Z,14.50
2018-03-02T10:57:07.949Z,14.60
2018-03-02T10:59:36.079Z,14.70
2018-03-02T11:02:06.809Z,14.60
2018-03-02T11:04:36.642Z,13.90
2018-03-02T11:07:04.774Z,14.00
2018-03-02T11:09:32.911Z,13.70
2018-03-02T11:12:01.062Z,13.20
2018-03-02T11:14:29.192Z,13.30
2018-03-02T11:16:57.353Z,13.20
2018-03-02T11:19:25.587Z,13.70
2018-03-02T11:21:53.726Z,12.90
2018-03-02T11:24:22.651Z,12.40
2018-03-02T11:26:50.790Z,12.30
2018-03-02T11:29:19.713Z,10.90
2018-03-02T11:31:47.886Z,10.90
2018-03-02T11:34:16.026Z,11.20
2018-03-02T11:36:44.934Z,11.80
2018-03-02T11:39:13.082Z,11.70
2018-03-02T11:41:41.982Z,11.20
2018-03-02T11:44:10.182Z,11.20
2018-03-02T11:46:38.330Z,11.40
2018-03-02T11:49:06.477Z,11.10
2018-03-02T11:51:35.499Z,9.90
2018-03-02T11:54:03.696Z,9.80
2018-03-02T11:56:31.847Z,9.40
2018-03-02T11:59:00.001Z,9.20
2018-03-02T12:01:29.342Z,8.50
2018-03-02T12:03:57.469Z,8.40
2018-03-02T12:06:26.400Z,7.00
2018-03-02T12:08:54.582Z,7.00
2018-03-02T12:11:22.870Z,5.90
2018-03-02T12:13:51.027Z,5.90
2018-03-02T12:16:19.183Z,6.00
2018-03-02T12:18:47.335Z,5.80
2018-03-02T12:21:16.260Z,5.40
2018-03-02T12:23:44.453Z,5.40
2018-03-02T12:26:12.622Z,4.80
2018-03-02T12:28:40.782Z,4.30
2018-03-02T12:31:08.973Z,4.00
2018-03-02T12:33:37.168Z,3.70
2018-03-02T12:36:05.282Z,3.10
2018-03-02T12:38:33.455Z,3.10
2018-03-02T12:41:01.596Z,3.10
2018-03-02T12:43:29.725Z,2.00
2018-03-02T12:45:57.882Z,2.20
2018-03-02T12:48:26.034Z,2.30
2018-03-02T12:50:54.169Z,2.10
2018-03-02T12:53:22.332Z,2.10
2018-03-02T12:55:50.470Z,1.40
2018-03-02T12:58:18.602Z,1.30
2018-03-02T13:00:46.770Z,1.20
2018-03-02T13:03:14.907Z,1.00
2018-03-02T13:05:43.053Z,1.20
2018-03-02T13:08:11.206Z,1.00
2018-03-02T13:10:40.117Z,1.00
2018-03-02T13:13:08.285Z,1.00
2018-03-02T13:15:36.471Z,1.00
2018-03-02T13:18:04.653Z,1.00
2018-03-02T13:20:32.807Z,1.00
2018-03-02T13:23:01.003Z,1.00
2018-03-02T13:25:29.148Z,1.00
2018-03-02T13:28:15.380Z,1.00
2018-03-02T13:30:43.522Z,1.00
2018-03-02T13:36:22.665Z,1.00
2018-03-02T13:38:51.642Z,1.00
2018-03-02T13:41:38.485Z,1.00
2018-03-02T13:44:06.642Z,1.00
2018-03-02T13:46:34.829Z,1.00
2018-03-02T13:49:20.843Z,1.00
2018-03-02T13:51:48.991Z,1.00
2018-03-02T13:54:17.157Z,1.00
2018-03-02T13:57:03.247Z,1.00
2018-03-02T13:59:31.410Z,1.00
2018-03-02T14:01:59.555Z,1.00
2018-03-02T14:04:43.403Z,1.00
2018-03-02T14:07:12.385Z,1.00
2018-03-02T14:09:40.623Z,1.00
2018-03-02T14:12:08.885Z,1.00
2018-03-02T14:14:37.022Z,1.00
2018-03-02T14:17:05.918Z,1.00
2018-03-02T14:19:34.852Z,1.00
2018-03-02T14:22:02.985Z,1.00
2018-03-02T14:24:31.121Z,1.00
2018-03-02T14:27:00.121Z,1.00
2018-03-02T14:29:28.258Z,1.00
2018-03-02T14:31:56.406Z,1.00
2018-03-02T14:34:24.538Z,1.00
2018-03-02T14:36:52.904Z,1.00
2018-03-02T14:39:21.050Z,1.00
2018-03-02T14:41:49.495Z,1.00
2018-03-02T14:44:28.991Z,1.00
2018-03-02T14:46:57.145Z,1.00
2018-03-02T14:49:25.309Z,1.00
2018-03-02T14:51:53.478Z,1.00
2018-03-02T14:54:22.485Z,1.00
2018-03-02T14:56:50.623Z,1.00
2018-03-02T14:59:18.795Z,1.00
2018-03-02T15:01:46.930Z,1.00
2018-03-02T15:04:15.158Z,1.00
2018-03-02T15:06:43.309Z,1.00
2018-03-02T15:09:12.042Z,1.00
2018-03-02T15:11:40.202Z,1.00
2018-03-02T15:14:08.333Z,1.00
2018-03-02T15:16:37.250Z,1.00
2018-03-02T15:19:05.407Z,1.00
2018-03-02T15:21:34.126Z,1.00
2018-03-02T15:24:02.306Z,1.00
2018-03-02T15:26:30.433Z,1.10
2018-03-02T15:28:58.566Z,1.00
2018-03-02T15:31:26.718Z,1.00
2018-03-02T15:33:54.862Z,1.00
2018-03-02T15:36:23.043Z,1.00
2018-03-02T15:41:49.225Z,1.00
2018-03-02T15:44:17.378Z,1.00
2018-03-02T15:46:45.517Z,1.00
2018-03-02T15:49:13.653Z,1.00
2018-03-02T15:51:41.989Z,1.00
2018-03-02T15:54:10.125Z,1.60
2018-03-02T15:56:39.033Z,2.40
2018-03-02T15:59:07.192Z,2.40
2018-03-02T16:01:35.322Z,2.80
2018-03-02T16:04:03.463Z,3.20
2018-03-02T16:06:31.652Z,3.60
2018-03-02T16:08:59.803Z,5.20
2018-03-02T16:11:27.937Z,6.10
2018-03-02T16:13:58.082Z,7.20
2018-03-02T16:16:26.210Z,7.10
2018-03-02T16:18:54.347Z,7.80
2018-03-02T16:21:22.486Z,8.40
2018-03-02T16:23:51.422Z,10.50
2018-03-02T16:26:19.549Z,10.60
2018-03-02T16:28:48.467Z,12.50
2018-03-02T16:31:16.657Z,12.40
2018-03-02T16:33:45.582Z,13.50
2018-03-02T16:36:14.153Z,13.30
2018-03-02T16:38:42.336Z,14.10
2018-03-02T16:41:11.251Z,15.60
2018-03-02T16:43:39.433Z,15.50
2018-03-02T16:46:07.606Z,16.00
2018-03-02T16:48:35.741Z,16.30
2018-03-02T16:51:03.881Z,17.00
2018-03-02T16:53:32.078Z,17.50
2018-03-02T16:56:00.521Z,17.70
2018-03-02T16:58:28.667Z,18.20
2018-03-02T17:00:56.837Z,18.50
2018-03-02T17:03:25.741Z,19.00
2018-03-02T17:05:53.878Z,19.10
2018-03-02T17:08:22.050Z,19.40
2018-03-02T17:10:50.962Z,19.90
2018-03-02T17:13:19.886Z,20.00
2018-03-02T17:15:48.066Z,20.20
2018-03-02T17:18:16.207Z,20.00
2018-03-02T17:20:44.342Z,20.00
2018-03-02T17:23:12.513Z,20.00
2018-03-02T17:25:40.807Z,20.20
2018-03-02T17:28:09.710Z,21.00
2018-03-02T17:30:37.926Z,21.00
2018-03-02T17:33:06.074Z,21.10
2018-03-02T17:35:34.358Z,21.10
2018-03-02T17:38:02.509Z,21.30
2018-03-02T17:40:30.650Z,21.40
2018-03-02T17:42:58.857Z,21.40
2018-03-02T17:45:26.993Z,21.50
2018-03-02T17:47:55.234Z,21.80
2018-03-02T17:50:23.370Z,21.80
2018-03-02T17:52:51.521Z,22.10
2018-03-02T17:55:19.682Z,22.10
2018-03-02T17:57:47.825Z,22.30
2018-03-02T18:00:15.973Z,22.40
2018-03-02T18:02:44.125Z,22.50
2018-03-02T18:05:13.363Z,22.70
2018-03-02T18:07:41.626Z,22.70
2018-03-02T18:10:09.806Z,23.00
2018-03-02T18:12:37.957Z,23.00
2018-03-02T18:15:06.102Z,23.00
2018-03-02T18:17:35.049Z,23.20
2018-03-02T18:20:03.190Z,23.20
2018-03-02T18:22:31.560Z,22.90
2018-03-02T18:24:59.763Z,23.20
2018-03-02T18:27:27.938Z,23.20
2018-03-02T18:29:56.088Z,23.10
2018-03-02T18:32:24.270Z,23.20
2018-03-02T18:34:52.869Z,23.30
2018-03-02T18:37:21.008Z,23.50
2018-03-02T18:39:49.184Z,23.60
2018-03-02T18:42:18.044Z,23.60
2018-03-02T18:44:46.578Z,23.90
2018-03-02T18:47:14.774Z,23.90
2018-03-02T18:49:42.918Z,23.90
2018-03-02T18:52:11.060Z,24.00
2018-03-02T18:54:40.010Z,24.20
2018-03-02T18:57:08.166Z,24.40
2018-03-02T18:59:36.309Z,24.20
2018-03-02T19:02:04.520Z,24.40
2018-03-02T19:04:33.514Z,24.50
2018-03-02T19:07:01.679Z,24.70
2018-03-02T19:09:29.910Z,25.10
2018-03-02T19:11:58.835Z,25.50
2018-03-02T19:14:27.010Z,25.50
2018-03-02T19:16:55.193Z,25.40
2018-03-02T19:19:23.342Z,25.60
2018-03-02T19:21:51.495Z,25.80
2018-03-02T19:24:20.438Z,25.90
2018-03-02T19:26:48.634Z,25.90
2018-03-02T19:29:17.652Z,26.20
2018-03-02T19:31:45.887Z,26.30
2018-03-02T19:34:14.161Z,26.30
2018-03-02T19:36:42.415Z,26.50
2018-03-02T19:39:10.704Z,26.60
2018-03-02T19:41:38.964Z,26.70
2018-03-02T19:44:07.230Z,26.70
2018-03-02T19:46:35.508Z,27.10
2018-03-02T19:49:03.743Z,27.20
2018-03-02T19:51:32.711Z,27.30
2018-03-02T19:54:00.949Z,27.40
2018-03-02T19:56:29.187Z,27.50
2018-03-02T19:58:57.420Z,27.70
2018-03-02T20:01:25.623Z,27.80
2018-03-02T20:03:54.627Z,28.00
2018-03-02T20:06:23.573Z,27.90
2018-03-02T20:08:51.786Z,28.00
2018-03-02T20:11:21.233Z,28.30
2018-03-02T20:13:49.435Z,28.20
2018-03-02T20:16:17.797Z,28.20
2018-03-02T20:18:46.517Z,28.30
2018-03-02T20:21:15.477Z,28.60
2018-03-02T20:23:44.251Z,28.60
2018-03-02T20:26:12.416Z,28.80
2018-03-02T20:28:40.590Z,28.90
2018-03-02T20:31:08.771Z,29.10
2018-03-02T20:33:36.913Z,29.20
2018-03-02T20:36:05.081Z,29.20
2018-03-02T20:38:33.999Z,29.50
2018-03-02T20:41:02.147Z,29.60
2018-03-02T20:43:30.342Z,30.40
2018-03-02T20:45:58.492Z,29.50
2018-03-02T20:48:26.690Z,29.40
2018-03-02T20:50:54.874Z,29.40
2018-03-02T20:53:23.037Z,29.40
2018-03-02T20:55:51.217Z,29.30
2018-03-02T20:58:19.413Z,29.50
2018-03-02T21:00:47.558Z,29.50
2018-03-02T21:03:15.732Z,29.30
2018-03-02T21:05:43.876Z,29.40
2018-03-02T21:08:12.082Z,29.30
2018-03-02T21:10:40.234Z,29.30
2018-03-02T21:13:08.426Z,29.30
2018-03-02T21:15:36.698Z,29.30
2018-03-02T21:18:04.852Z,29.40
2018-03-02T21:20:32.994Z,29.50
2018-03-02T21:23:01.936Z,30.00
2018-03-02T21:25:30.106Z,29.90
2018-03-02T21:27:58.262Z,30.00
2018-03-02T21:30:26.452Z,30.00
2018-03-02T21:32:54.610Z,29.80
2018-03-02T21:35:22.890Z,30.00
2018-03-02T21:37:51.087Z,30.00
2018-03-02T21:40:19.342Z,29.90
2018-03-02T21:42:47.496Z,30.20
2018-03-02T21:45:16.625Z,30.20
2018-03-02T21:47:44.792Z,30.40
2018-03-02T21:50:12.962Z,30.60
2018-03-02T21:52:41.129Z,30.90
2018-03-02T21:55:09.346Z,30.90
2018-03-02T21:57:37.586Z,30.90
2018-03-02T22:00:05.727Z,30.70
2018-03-02T22:02:33.875Z,30.90
2018-03-02T22:05:02.030Z,30.90
2018-03-02T22:07:30.173Z,32.00
2018-03-02T22:09:58.326Z,31.00
2018-03-02T22:12:26.521Z,31.10
2018-03-02T22:14:54.678Z,31.30
2018-03-02T22:17:22.881Z,31.30
2018-03-02T22:19:51.038Z,31.30
2018-03-02T22:22:19.190Z,31.60
2018-03-02T22:24:47.352Z,31.70
2018-03-02T22:27:15.506Z,31.80
2018-03-02T22:29:44.452Z,32.50
2018-03-02T22:32:12.599Z,32.30
2018-03-02T22:34:40.754Z,32.50
2018-03-02T22:37:09.709Z,32.70
2018-03-02T22:39:37.886Z,32.70
2018-03-02T22:42:06.018Z,32.80
2018-03-02T22:44:34.175Z,33.10
2018-03-02T22:47:02.318Z,33.20
2018-03-02T22:49:30.505Z,33.10
2018-03-02T22:51:59.422Z,33.90
2018-03-02T22:54:27.569Z,34.00
2018-03-02T22:56:56.493Z,34.40
2018-03-02T22:59:24.653Z,34.30
2018-03-02T23:01:52.798Z,34.40
2018-03-02T23:04:21.712Z,35.00
2018-03-02T23:06:49.864Z,34.80
2018-03-02T23:09:18.769Z,35.10
2018-03-02T23:11:46.997Z,35.20
2018-03-02T23:14:15.346Z,35.30
2018-03-02T23:16:43.548Z,35.50
2018-03-02T23:19:11.689Z,35.50
2018-03-02T23:21:39.872Z,35.60
2018-03-02T23:24:08.025Z,35.70
2018-03-02T23:26:36.175Z,35.80
2018-03-02T23:29:05.102Z,36.30
2018-03-02T23:31:33.251Z,36.40
2018-03-02T23:34:01.435Z,36.60
2018-03-02T23:36:29.610Z,36.60
2018-03-02T23:38:57.749Z,36.70
2018-03-02T23:41:26.671Z,37.10
2018-03-02T23:43:54.816Z,37.10
2018-03-02T23:46:23.734Z,37.60
2018-03-02T23:48:51.906Z,37.60
2018-03-02T23:51:22.302Z,37.70
2018-03-02T23:53:50.453Z,37.60
2018-03-02T23:56:18.678Z,37.80
2018-03-02T23:58:46.859Z,38.00
